sensor_id;sensor_type;location;lat;lon;timestamp;pressure;altitude;pressure_sealevel;temperature;humidity
77583;BME280;66726;52.388;9.986;2024-01-07T00:01:39;101031.53;;;-0.53;100.00
77583;BME280;66726;52.388;9.986;2024-01-07T00:04:09;101032.03;;;-0.62;100.00
77583;BME280;66726;52.388;9.986;2024-01-07T00:06:37;101032.13;;;-0.63;100.00
77583;BME280;66726;52.388;9.986;2024-01-07T00:09:05;101027.78;;;-0.64;100.00
77583;BME280;66726;52.388;9.986;2024-01-07T00:11:33;101042.19;;;-0.71;100.00
77583;BME280;66726;52.388;9.986;2024-01-07T00:14:01;101047.66;;;-0.59;100.00
77583;BME280;66726;52.388;9.986;2024-01-07T00:16:30;101036.25;;;-0.75;100.00
77583;BME280;66726;52.388;9.986;2024-01-07T00:18:58;101041.88;;;-0.65;100.00
77583;BME280;66726;52.388;9.986;2024-01-07T00:21:28;101047.59;;;-0.74;100.00
77583;BME280;66726;52.388;9.986;2024-01-07T00:23:56;101049.84;;;-0.67;100.00
77583;BME280;66726;52.388;9.986;2024-01-07T00:26:24;101051.38;;;-0.63;100.00
77583;BME280;66726;52.388;9.986;2024-01-07T00:28:52;101047.66;;;-0.59;100.00
77583;BME280;66726;52.388;9.986;2024-01-07T00:31:20;101052.69;;;-0.71;100.00
77583;BME280;66726;52.388;9.986;2024-01-07T00:33:49;101055.94;;;-0.66;100.00
77583;BME280;66726;52.388;9.986;2024-01-07T00:36:17;101054.66;;;-0.75;100.00
77583;BME280;66726;52.388;9.986;2024-01-07T00:38:46;101060.84;;;-0.76;100.00
77583;BME280;66726;52.388;9.986;2024-01-07T00:41:15;101056.97;;;-0.69;100.00
77583;BME280;66726;52.388;9.986;2024-01-07T00:43:43;101064.72;;;-0.83;100.00
77583;BME280;66726;52.388;9.986;2024-01-07T00:46:11;101065.78;;;-0.70;100.00
77583;BME280;66726;52.388;9.986;2024-01-07T00:48:39;101058.81;;;-0.71;100.00
77583;BME280;66726;52.388;9.986;2024-01-07T00:51:07;101072.19;;;-0.75;100.00
77583;BME280;66726;52.388;9.986;2024-01-07T00:53:35;101071.38;;;-0.76;100.00
77583;BME280;66726;52.388;9.986;2024-01-07T00:56:06;101067.03;;;-0.77;100.00
77583;BME280;66726;52.388;9.986;2024-01-07T00:58:36;101077.88;;;-0.83;100.00
77583;BME280;66726;52.388;9.986;2024-01-07T01:01:06;101081.94;;;-0.77;100.00
77583;BME280;66726;52.388;9.986;2024-01-07T01:03:34;101091.28;;;-0.72;100.00
77583;BME280;66726;52.388;9.986;2024-01-07T01:06:04;101093.16;;;-0.74;100.00
77583;BME280;66726;52.388;9.986;2024-01-07T01:08:32;101092.25;;;-0.73;100.00
77583;BME280;66726;52.388;9.986;2024-01-07T01:11:00;101098.47;;;-0.75;100.00
77583;BME280;66726;52.388;9.986;2024-01-07T01:13:30;101100.03;;;-0.71;100.00
77583;BME280;66726;52.388;9.986;2024-01-07T01:15:58;101103.66;;;-0.74;100.00
77583;BME280;66726;52.388;9.986;2024-01-07T01:18:26;101113.09;;;-0.70;100.00
77583;BME280;66726;52.388;9.986;2024-01-07T01:20:56;101113.28;;;-0.73;100.00
77583;BME280;66726;52.388;9.986;2024-01-07T01:23:24;101121.31;;;-0.76;100.00
77583;BME280;66726;52.388;9.986;2024-01-07T01:25:55;101121.38;;;-0.77;100.00
77583;BME280;66726;52.388;9.986;2024-01-07T01:28:23;101119.38;;;-0.72;100.00
77583;BME280;66726;52.388;9.986;2024-01-07T01:30:53;101120.38;;;-0.75;100.00
77583;BME280;66726;52.388;9.986;2024-01-07T01:33:21;101125.63;;;-0.75;100.00
77583;BME280;66726;52.388;9.986;2024-01-07T01:35:49;101128.34;;;-0.76;100.00
77583;BME280;66726;52.388;9.986;2024-01-07T01:38:17;101130.03;;;-0.75;100.00
77583;BME280;66726;52.388;9.986;2024-01-07T01:40:51;101138.19;;;-0.80;100.00
77583;BME280;66726;52.388;9.986;2024-01-07T01:43:24;101142.19;;;-0.90;100.00
77583;BME280;66726;52.388;9.986;2024-01-07T01:45:53;101138.88;;;-0.93;100.00
77583;BME280;66726;52.388;9.986;2024-01-07T01:48:23;101146.91;;;-0.96;100.00
77583;BME280;66726;52.388;9.986;2024-01-07T01:50:53;101148.06;;;-1.02;100.00
77583;BME280;66726;52.388;9.986;2024-01-07T01:53:22;101160.44;;;-1.04;100.00
77583;BME280;66726;52.388;9.986;2024-01-07T01:55:51;101166.59;;;-1.05;100.00
77583;BME280;66726;52.388;9.986;2024-01-07T01:58:20;101163.81;;;-1.02;100.00
77583;BME280;66726;52.388;9.986;2024-01-07T02:00:49;101171.09;;;-1.07;100.00
77583;BME280;66726;52.388;9.986;2024-01-07T02:03:20;101174.03;;;-1.13;100.00
77583;BME280;66726;52.388;9.986;2024-01-07T02:05:49;101174.34;;;-1.02;100.00
77583;BME280;66726;52.388;9.986;2024-01-07T02:08:18;101177.06;;;-1.04;100.00
77583;BME280;66726;52.388;9.986;2024-01-07T02:10:47;101178.91;;;-1.06;100.00
77583;BME280;66726;52.388;9.986;2024-01-07T02:13:15;101179.19;;;-1.12;100.00
77583;BME280;66726;52.388;9.986;2024-01-07T02:15:43;101178.19;;;-1.09;100.00
77583;BME280;66726;52.388;9.986;2024-01-07T02:18:12;101178.72;;;-1.03;100.00
77583;BME280;66726;52.388;9.986;2024-01-07T02:20:41;101184.25;;;-1.07;100.00
77583;BME280;66726;52.388;9.986;2024-01-07T02:23:09;101183.00;;;-1.00;100.00
77583;BME280;66726;52.388;9.986;2024-01-07T02:25:39;101184.16;;;-1.06;100.00
77583;BME280;66726;52.388;9.986;2024-01-07T02:28:07;101194.44;;;-1.01;100.00
77583;BME280;66726;52.388;9.986;2024-01-07T02:30:35;101198.78;;;-1.00;100.00
77583;BME280;66726;52.388;9.986;2024-01-07T02:33:04;101191.28;;;-1.08;100.00
77583;BME280;66726;52.388;9.986;2024-01-07T02:35:34;101191.66;;;-0.98;100.00
77583;BME280;66726;52.388;9.986;2024-01-07T02:38:03;101199.38;;;-1.12;100.00
77583;BME280;66726;52.388;9.986;2024-01-07T02:40:31;101200.06;;;-1.09;100.00
77583;BME280;66726;52.388;9.986;2024-01-07T02:43:00;101203.34;;;-1.04;100.00
77583;BME280;66726;52.388;9.986;2024-01-07T02:45:29;101207.59;;;-1.01;100.00
77583;BME280;66726;52.388;9.986;2024-01-07T02:47:57;101204.63;;;-1.12;100.00
77583;BME280;66726;52.388;9.986;2024-01-07T02:50:25;101217.69;;;-1.11;100.00
77583;BME280;66726;52.388;9.986;2024-01-07T02:52:53;101210.53;;;-1.07;100.00
77583;BME280;66726;52.388;9.986;2024-01-07T02:55:21;101221.78;;;-1.05;100.00
77583;BME280;66726;52.388;9.986;2024-01-07T02:57:49;101223.88;;;-1.12;100.00
77583;BME280;66726;52.388;9.986;2024-01-07T03:00:19;101219.69;;;-1.16;100.00
77583;BME280;66726;52.388;9.986;2024-01-07T03:02:47;101219.63;;;-1.14;100.00
77583;BME280;66726;52.388;9.986;2024-01-07T03:05:16;101219.47;;;-1.11;100.00
77583;BME280;66726;52.388;9.986;2024-01-07T03:07:44;101223.56;;;-1.06;100.00
77583;BME280;66726;52.388;9.986;2024-01-07T03:10:12;101224.09;;;-1.16;100.00
77583;BME280;66726;52.388;9.986;2024-01-07T03:12:41;101237.91;;;-1.13;100.00
77583;BME280;66726;52.388;9.986;2024-01-07T03:15:09;101237.09;;;-1.13;100.00
77583;BME280;66726;52.388;9.986;2024-01-07T03:17:38;101236.59;;;-1.21;100.00
77583;BME280;66726;52.388;9.986;2024-01-07T03:20:08;101228.72;;;-1.21;100.00
77583;BME280;66726;52.388;9.986;2024-01-07T03:22:37;101234.03;;;-1.23;100.00
77583;BME280;66726;52.388;9.986;2024-01-07T03:25:07;101241.00;;;-1.22;100.00
77583;BME280;66726;52.388;9.986;2024-01-07T03:27:35;101243.22;;;-1.31;100.00
77583;BME280;66726;52.388;9.986;2024-01-07T03:30:05;101245.13;;;-1.35;100.00
77583;BME280;66726;52.388;9.986;2024-01-07T03:32:33;101254.50;;;-1.29;100.00
77583;BME280;66726;52.388;9.986;2024-01-07T03:35:04;101251.81;;;-1.28;100.00
77583;BME280;66726;52.388;9.986;2024-01-07T03:37:32;101257.47;;;-1.37;100.00
77583;BME280;66726;52.388;9.986;2024-01-07T03:40:00;101254.44;;;-1.46;100.00
77583;BME280;66726;52.388;9.986;2024-01-07T03:42:28;101257.47;;;-1.37;100.00
77583;BME280;66726;52.388;9.986;2024-01-07T03:44:56;101253.94;;;-1.36;100.00
77583;BME280;66726;52.388;9.986;2024-01-07T03:47:25;101272.53;;;-1.40;100.00
77583;BME280;66726;52.388;9.986;2024-01-07T03:49:53;101267.00;;;-1.34;100.00
77583;BME280;66726;52.388;9.986;2024-01-07T03:52:22;101269.63;;;-1.34;100.00
77583;BME280;66726;52.388;9.986;2024-01-07T03:54:50;101279.09;;;-1.30;100.00
77583;BME280;66726;52.388;9.986;2024-01-07T03:57:19;101282.47;;;-1.28;100.00
77583;BME280;66726;52.388;9.986;2024-01-07T03:59:47;101278.78;;;-1.24;100.00
77583;BME280;66726;52.388;9.986;2024-01-07T04:02:15;101279.84;;;-1.28;100.00
77583;BME280;66726;52.388;9.986;2024-01-07T04:04:43;101286.88;;;-1.29;100.00
77583;BME280;66726;52.388;9.986;2024-01-07T04:07:11;101290.78;;;-1.37;100.00
77583;BME280;66726;52.388;9.986;2024-01-07T04:09:43;101290.00;;;-1.39;100.00
77583;BME280;66726;52.388;9.986;2024-01-07T04:12:11;101290.78;;;-1.37;100.00
77583;BME280;66726;52.388;9.986;2024-01-07T04:14:39;101302.06;;;-1.35;100.00
77583;BME280;66726;52.388;9.986;2024-01-07T04:17:07;101300.34;;;-1.36;100.00
77583;BME280;66726;52.388;9.986;2024-01-07T04:19:37;101309.59;;;-1.46;100.00
77583;BME280;66726;52.388;9.986;2024-01-07T04:22:05;101311.91;;;-1.40;100.00
77583;BME280;66726;52.388;9.986;2024-01-07T04:24:33;101312.91;;;-1.43;100.00
77583;BME280;66726;52.388;9.986;2024-01-07T04:27:04;101308.09;;;-1.33;100.00
77583;BME280;66726;52.388;9.986;2024-01-07T04:29:33;101311.91;;;-1.40;100.00
77583;BME280;66726;52.388;9.986;2024-01-07T04:32:01;101310.59;;;-1.30;100.00
77583;BME280;66726;52.388;9.986;2024-01-07T04:34:29;101321.22;;;-1.33;100.00
77583;BME280;66726;52.388;9.986;2024-01-07T04:36:57;101327.41;;;-1.34;100.00
77583;BME280;66726;52.388;9.986;2024-01-07T04:39:26;101332.94;;;-1.40;100.00
77583;BME280;66726;52.388;9.986;2024-01-07T04:41:54;101324.38;;;-1.44;100.00
77583;BME280;66726;52.388;9.986;2024-01-07T04:44:23;101336.78;;;-1.47;100.00
77583;BME280;66726;52.388;9.986;2024-01-07T04:46:52;101331.97;;;-1.38;100.00
77583;BME280;66726;52.388;9.986;2024-01-07T04:49:20;101337.56;;;-1.45;100.00
77583;BME280;66726;52.388;9.986;2024-01-07T04:51:48;101340.81;;;-1.40;100.00
77583;BME280;66726;52.388;9.986;2024-01-07T04:54:16;101345.81;;;-1.34;100.00
77583;BME280;66726;52.388;9.986;2024-01-07T04:56:45;101344.38;;;-1.41;100.00
77583;BME280;66726;52.388;9.986;2024-01-07T04:59:13;101348.63;;;-1.39;100.00
77583;BME280;66726;52.388;9.986;2024-01-07T05:01:43;101354.78;;;-1.40;100.00
77583;BME280;66726;52.388;9.986;2024-01-07T05:04:11;101356.50;;;-1.39;100.00
77583;BME280;66726;52.388;9.986;2024-01-07T05:06:40;101360.00;;;-1.38;100.00
77583;BME280;66726;52.388;9.986;2024-01-07T05:09:08;101361.03;;;-1.42;100.00
77583;BME280;66726;52.388;9.986;2024-01-07T05:11:39;101374.31;;;-1.45;100.00
77583;BME280;66726;52.388;9.986;2024-01-07T05:14:08;101381.16;;;-1.41;100.00
77583;BME280;66726;52.388;9.986;2024-01-07T05:16:36;101379.44;;;-1.42;100.00
77583;BME280;66726;52.388;9.986;2024-01-07T05:19:05;101384.81;;;-1.45;100.00
77583;BME280;66726;52.388;9.986;2024-01-07T05:21:33;101384.16;;;-1.50;100.00
77583;BME280;66726;52.388;9.986;2024-01-07T05:24:02;101381.63;;;-1.52;100.00
77583;BME280;66726;52.388;9.986;2024-01-07T05:26:30;101395.75;;;-1.55;100.00
77583;BME280;66726;52.388;9.986;2024-01-07T05:28:58;101401.81;;;-1.54;100.00
77583;BME280;66726;52.388;9.986;2024-01-07T05:31:26;101404.41;;;-1.52;100.00
77583;BME280;66726;52.388;9.986;2024-01-07T05:33:54;101402.81;;;-1.57;100.00
77583;BME280;66726;52.388;9.986;2024-01-07T05:36:24;101406.78;;;-1.67;100.00
77583;BME280;66726;52.388;9.986;2024-01-07T05:38:52;101397.84;;;-1.63;100.00
77583;BME280;66726;52.388;9.986;2024-01-07T05:41:20;101401.00;;;-1.55;100.00
77583;BME280;66726;52.388;9.986;2024-01-07T05:43:48;101405.41;;;-1.55;100.00
77583;BME280;66726;52.388;9.986;2024-01-07T05:46:16;101407.78;;;-1.50;100.00
77583;BME280;66726;52.388;9.986;2024-01-07T05:48:47;101416.63;;;-1.51;100.00
77583;BME280;66726;52.388;9.986;2024-01-07T05:51:16;101419.75;;;-1.64;100.00
77583;BME280;66726;52.388;9.986;2024-01-07T05:53:46;101427.59;;;-1.62;100.00
77583;BME280;66726;52.388;9.986;2024-01-07T05:56:14;101428.94;;;-1.54;100.00
77583;BME280;66726;52.388;9.986;2024-01-07T05:58:42;101429.34;;;-1.63;100.00
77583;BME280;66726;52.388;9.986;2024-01-07T06:01:10;101436.91;;;-1.55;100.00
77583;BME280;66726;52.388;9.986;2024-01-07T06:03:39;101440.00;;;-1.66;100.00
77583;BME280;66726;52.388;9.986;2024-01-07T06:06:07;101440.44;;;-1.56;100.00
77583;BME280;66726;52.388;9.986;2024-01-07T06:08:35;101447.41;;;-1.75;100.00
77583;BME280;66726;52.388;9.986;2024-01-07T06:11:04;101454.28;;;-1.73;100.00
77583;BME280;66726;52.388;9.986;2024-01-07T06:13:33;101453.38;;;-1.72;100.00
77583;BME280;66726;52.388;9.986;2024-01-07T06:16:01;101465.66;;;-1.72;100.00
77583;BME280;66726;52.388;9.986;2024-01-07T06:18:29;101468.47;;;-1.77;100.00
77583;BME280;66726;52.388;9.986;2024-01-07T06:20:57;101472.09;;;-1.59;100.00
77583;BME280;66726;52.388;9.986;2024-01-07T06:23:26;101477.34;;;-1.59;100.00
77583;BME280;66726;52.388;9.986;2024-01-07T06:25:54;101490.00;;;-1.69;100.00
77583;BME280;66726;52.388;9.986;2024-01-07T06:28:23;101494.44;;;-1.71;100.00
77583;BME280;66726;52.388;9.986;2024-01-07T06:30:51;101496.34;;;-1.74;100.00
77583;BME280;66726;52.388;9.986;2024-01-07T06:33:24;101494.72;;;-1.77;100.00
77583;BME280;66726;52.388;9.986;2024-01-07T06:35:53;101495.88;;;-1.84;100.00
77583;BME280;66726;52.388;9.986;2024-01-07T06:38:21;101503.16;;;-1.90;100.00
77583;BME280;66726;52.388;9.986;2024-01-07T06:40:49;101503.88;;;-1.87;100.00
77583;BME280;66726;52.388;9.986;2024-01-07T06:43:17;101505.94;;;-1.95;100.00
77583;BME280;66726;52.388;9.986;2024-01-07T06:45:47;101519.06;;;-1.95;100.00
77583;BME280;66726;52.388;9.986;2024-01-07T06:48:15;101519.03;;;-1.93;100.00
77583;BME280;66726;52.388;9.986;2024-01-07T06:50:43;101517.19;;;-1.91;100.00
77583;BME280;66726;52.388;9.986;2024-01-07T06:53:11;101522.03;;;-2.02;100.00
77583;BME280;66726;52.388;9.986;2024-01-07T06:55:40;101528.66;;;-1.94;100.00
77583;BME280;66726;52.388;9.986;2024-01-07T06:58:08;101531.16;;;-1.91;100.00
77583;BME280;66726;52.388;9.986;2024-01-07T07:00:36;101534.16;;;-2.00;100.00
77583;BME280;66726;52.388;9.986;2024-01-07T07:03:06;101546.59;;;-2.05;100.00
77583;BME280;66726;52.388;9.986;2024-01-07T07:05:35;101555.16;;;-2.00;100.00
77583;BME280;66726;52.388;9.986;2024-01-07T07:08:04;101560.41;;;-2.00;100.00
77583;BME280;66726;52.388;9.986;2024-01-07T07:10:32;101550.69;;;-1.98;100.00
77583;BME280;66726;52.388;9.986;2024-01-07T07:13:00;101567.16;;;-1.94;100.00
77583;BME280;66726;52.388;9.986;2024-01-07T07:15:28;101570.47;;;-1.89;100.00
77583;BME280;66726;52.388;9.986;2024-01-07T07:17:57;101560.88;;;-1.90;100.00
77583;BME280;66726;52.388;9.986;2024-01-07T07:20:26;101574.09;;;-1.92;100.00
77583;BME280;66726;52.388;9.986;2024-01-07T07:22:54;101579.50;;;-1.96;100.00
77583;BME280;66726;52.388;9.986;2024-01-07T07:25:22;101593.09;;;-1.87;100.00
77583;BME280;66726;52.388;9.986;2024-01-07T07:27:50;101585.13;;;-1.84;100.00
77583;BME280;66726;52.388;9.986;2024-01-07T07:30:19;101589.72;;;-1.89;100.00
77583;BME280;66726;52.388;9.986;2024-01-07T07:32:47;101592.97;;;-1.84;100.00
77583;BME280;66726;52.388;9.986;2024-01-07T07:35:15;101594.97;;;-1.89;100.00
77583;BME280;66726;52.388;9.986;2024-01-07T07:37:45;101601.16;;;-1.91;100.00
77583;BME280;66726;52.388;9.986;2024-01-07T07:40:13;101601.28;;;-1.94;100.00
77583;BME280;66726;52.388;9.986;2024-01-07T07:42:42;101603.03;;;-1.95;100.00
77583;BME280;66726;52.388;9.986;2024-01-07T07:45:10;101606.41;;;-1.91;100.00
77583;BME280;66726;52.388;9.986;2024-01-07T07:47:39;101613.38;;;-1.90;100.00
77583;BME280;66726;52.388;9.986;2024-01-07T07:50:11;101622.47;;;-1.99;100.00
77583;BME280;66726;52.388;9.986;2024-01-07T07:52:41;101618.13;;;-2.00;100.00
77583;BME280;66726;52.388;9.986;2024-01-07T07:55:11;101624.03;;;-1.95;100.00
77583;BME280;66726;52.388;9.986;2024-01-07T07:57:42;101630.34;;;-1.99;100.00
77583;BME280;66726;52.388;9.986;2024-01-07T08:00:12;101634.44;;;-1.92;100.00
77583;BME280;66726;52.388;9.986;2024-01-07T08:02:40;101637.16;;;-1.95;100.00
77583;BME280;66726;52.388;9.986;2024-01-07T08:05:09;101638.84;;;-1.92;100.00
77583;BME280;66726;52.388;9.986;2024-01-07T08:07:37;101641.38;;;-1.91;100.00
77583;BME280;66726;52.388;9.986;2024-01-07T08:10:07;101645.59;;;-1.87;100.00
77583;BME280;66726;52.388;9.986;2024-01-07T08:12:37;101647.31;;;-1.86;100.00
77583;BME280;66726;52.388;9.986;2024-01-07T08:15:07;101651.47;;;-1.80;100.00
77583;BME280;66726;52.388;9.986;2024-01-07T08:17:35;101648.78;;;-1.79;100.00
77583;BME280;66726;52.388;9.986;2024-01-07T08:20:05;101652.19;;;-1.77;100.00
77583;BME280;66726;52.388;9.986;2024-01-07T08:22:34;101662.94;;;-1.83;100.00
77583;BME280;66726;52.388;9.986;2024-01-07T08:25:02;101662.66;;;-1.75;100.00
77583;BME280;66726;52.388;9.986;2024-01-07T08:27:31;101670.41;;;-1.72;100.00
77583;BME280;66726;52.388;9.986;2024-01-07T08:30:01;101674.06;;;-1.76;100.00
77583;BME280;66726;52.388;9.986;2024-01-07T08:32:29;101674.78;;;-1.73;100.00
77583;BME280;66726;52.388;9.986;2024-01-07T08:34:57;101676.53;;;-1.72;100.00
77583;BME280;66726;52.388;9.986;2024-01-07T08:37:26;101672.09;;;-1.71;100.00
77583;BME280;66726;52.388;9.986;2024-01-07T08:39:54;101681.97;;;-1.78;100.00
77583;BME280;66726;52.388;9.986;2024-01-07T08:42:22;101680.41;;;-1.82;100.00
77583;BME280;66726;52.388;9.986;2024-01-07T08:44:55;101679.47;;;-1.81;100.00
77583;BME280;66726;52.388;9.986;2024-01-07T08:47:25;101681.88;;;-1.75;100.00
77583;BME280;66726;52.388;9.986;2024-01-07T08:49:53;101683.34;;;-1.68;100.00
77583;BME280;66726;52.388;9.986;2024-01-07T08:52:21;101683.34;;;-1.68;100.00
77583;BME280;66726;52.388;9.986;2024-01-07T08:54:49;101689.22;;;-1.61;100.00
77583;BME280;66726;52.388;9.986;2024-01-07T08:57:17;101697.88;;;-1.59;100.00
77583;BME280;66726;52.388;9.986;2024-01-07T08:59:46;101695.91;;;-1.54;100.00
77583;BME280;66726;52.388;9.986;2024-01-07T09:02:14;101702.34;;;-1.61;100.00
77583;BME280;66726;52.388;9.986;2024-01-07T09:04:43;101702.09;;;-1.55;100.00
77583;BME280;66726;52.388;9.986;2024-01-07T09:07:11;101706.13;;;-1.68;100.00
77583;BME280;66726;52.388;9.986;2024-01-07T09:09:39;101701.91;;;-1.72;100.00
77583;BME280;66726;52.388;9.986;2024-01-07T09:12:08;101698.06;;;-1.64;100.00
77583;BME280;66726;52.388;9.986;2024-01-07T09:14:37;101706.91;;;-1.66;100.00
77583;BME280;66726;52.388;9.986;2024-01-07T09:17:05;101707.41;;;-1.57;100.00
77583;BME280;66726;52.388;9.986;2024-01-07T09:19:33;101704.13;;;-1.62;100.00
77583;BME280;66726;52.388;9.986;2024-01-07T09:22:03;101706.63;;;-1.59;100.00
77583;BME280;66726;52.388;9.986;2024-01-07T09:24:32;101712.00;;;-1.62;100.00
77583;BME280;66726;52.388;9.986;2024-01-07T09:27:00;101716.09;;;-1.55;100.00
77583;BME280;66726;52.388;9.986;2024-01-07T09:29:28;101729.88;;;-1.49;100.00
77583;BME280;66726;52.388;9.986;2024-01-07T09:31:56;101720.41;;;-1.54;100.00
77583;BME280;66726;52.388;9.986;2024-01-07T09:34:26;101729.28;;;-1.56;100.00
77583;BME280;66726;52.388;9.986;2024-01-07T09:36:54;101727.34;;;-1.51;100.00
77583;BME280;66726;52.388;9.986;2024-01-07T09:39:23;101731.66;;;-1.50;100.00
77583;BME280;66726;52.388;9.986;2024-01-07T09:41:53;101733.66;;;-1.57;100.00
77583;BME280;66726;52.388;9.986;2024-01-07T09:44:21;101728.91;;;-1.47;100.00
77583;BME280;66726;52.388;9.986;2024-01-07T09:46:50;101728.91;;;-1.47;100.00
77583;BME280;66726;52.388;9.986;2024-01-07T09:49:19;101728.06;;;-1.47;100.00
77583;BME280;66726;52.388;9.986;2024-01-07T09:51:50;101737.66;;;-1.46;100.00
77583;BME280;66726;52.388;9.986;2024-01-07T09:54:23;101739.25;;;-1.42;100.00
77583;BME280;66726;52.388;9.986;2024-01-07T09:57:00;101737.53;;;-1.43;100.00
77583;BME280;66726;52.388;9.986;2024-01-07T09:59:28;101738.47;;;-1.44;100.00
77583;BME280;66726;52.388;9.986;2024-01-07T10:01:57;101746.50;;;-1.49;100.00
77583;BME280;66726;52.388;9.986;2024-01-07T10:04:26;101741.41;;;-1.54;100.00
77583;BME280;66726;52.388;9.986;2024-01-07T10:06:55;101747.38;;;-1.48;100.00
77583;BME280;66726;52.388;9.986;2024-01-07T10:09:29;101740.97;;;-1.41;100.00
77583;BME280;66726;52.388;9.986;2024-01-07T10:11:57;101743.47;;;-1.38;100.00
77583;BME280;66726;52.388;9.986;2024-01-07T10:14:26;101747.91;;;-1.40;100.00
77583;BME280;66726;52.388;9.986;2024-01-07T10:16:58;101739.31;;;-1.44;100.00
77583;BME280;66726;52.388;9.986;2024-01-07T10:19:26;101740.75;;;-1.37;100.00
77583;BME280;66726;52.388;9.986;2024-01-07T10:22:02;101744.25;;;-1.36;100.00
77583;BME280;66726;52.388;9.986;2024-01-07T10:24:36;101746.09;;;-1.38;100.00
77583;BME280;66726;52.388;9.986;2024-01-07T10:27:08;101741.56;;;-1.35;100.00
77583;BME280;66726;52.388;9.986;2024-01-07T10:29:37;101741.09;;;-1.44;100.00
77583;BME280;66726;52.388;9.986;2024-01-07T10:32:06;101750.44;;;-1.37;100.00
77583;BME280;66726;52.388;9.986;2024-01-07T10:34:36;101746.66;;;-1.30;100.00
77583;BME280;66726;52.388;9.986;2024-01-07T10:37:05;101746.41;;;-1.24;100.00
77583;BME280;66726;52.388;9.986;2024-01-07T10:39:35;101741.28;;;-1.27;100.00
77583;BME280;66726;52.388;9.986;2024-01-07T10:42:04;101749.09;;;-1.26;100.00
77583;BME280;66726;52.388;9.986;2024-01-07T10:44:33;101741.88;;;-1.21;100.00
77583;BME280;66726;52.388;9.986;2024-01-07T10:47:06;101740.13;;;-1.20;100.00
77583;BME280;66726;52.388;9.986;2024-01-07T10:49:39;101745.25;;;-1.17;100.00
77583;BME280;66726;52.388;9.986;2024-01-07T10:52:09;101742.50;;;-1.14;100.00
77583;BME280;66726;52.388;9.986;2024-01-07T10:54:42;101749.56;;;-1.16;100.00
77583;BME280;66726;52.388;9.986;2024-01-07T10:57:19;101744.22;;;-1.13;100.00
77583;BME280;66726;52.388;9.986;2024-01-07T10:59:52;101746.16;;;-1.18;100.00
77583;BME280;66726;52.388;9.986;2024-01-07T11:02:22;101752.44;;;-1.22;100.00
77583;BME280;66726;52.388;9.986;2024-01-07T11:05:02;101745.38;;;-1.20;100.00
77583;BME280;66726;52.388;9.986;2024-01-07T11:07:41;101749.56;;;-1.16;100.00
77583;BME280;66726;52.388;9.986;2024-01-07T11:10:16;101756.41;;;-1.12;100.00
77583;BME280;66726;52.388;9.986;2024-01-07T11:12:53;101759.13;;;-1.14;100.00
77583;BME280;66726;52.388;9.986;2024-01-07T11:15:54;101758.91;;;-1.09;100.00
77583;BME280;66726;52.388;9.986;2024-01-07T11:18:23;101754.59;;;-1.10;100.00
77583;BME280;66726;52.388;9.986;2024-01-07T11:20:59;101757.16;;;-1.09;100.00
77583;BME280;66726;52.388;9.986;2024-01-07T11:23:30;101757.16;;;-1.09;100.00
77583;BME280;66726;52.388;9.986;2024-01-07T11:26:01;101750.13;;;-1.08;100.00
77583;BME280;66726;52.388;9.986;2024-01-07T11:28:48;101749.25;;;-1.09;100.00
77583;BME280;66726;52.388;9.986;2024-01-07T11:31:19;101746.59;;;-1.07;100.00
77583;BME280;66726;52.388;9.986;2024-01-07T11:33:50;101752.88;;;-1.11;100.00
77583;BME280;66726;52.388;9.986;2024-01-07T11:36:19;101752.88;;;-1.11;100.00
77583;BME280;66726;52.388;9.986;2024-01-07T11:38:49;101749.94;;;-1.04;100.00
77583;BME280;66726;52.388;9.986;2024-01-07T11:41:24;101749.09;;;-1.04;100.00
77583;BME280;66726;52.388;9.986;2024-01-07T11:43:55;101752.75;;;-1.08;100.00
77583;BME280;66726;52.388;9.986;2024-01-07T11:46:32;101749.34;;;-1.10;100.00
77583;BME280;66726;52.388;9.986;2024-01-07T11:49:01;101740.41;;;-1.06;100.00
77583;BME280;66726;52.388;9.986;2024-01-07T11:51:31;101743.97;;;-1.07;100.00
77583;BME280;66726;52.388;9.986;2024-01-07T11:54:02;101741.13;;;-1.03;100.00
77583;BME280;66726;52.388;9.986;2024-01-07T11:56:31;101744.56;;;-1.00;100.00
77583;BME280;66726;52.388;9.986;2024-01-07T11:58:59;101750.56;;;-0.97;100.00
77583;BME280;66726;52.388;9.986;2024-01-07T12:01:28;101743.41;;;-0.93;100.00
77583;BME280;66726;52.388;9.986;2024-01-07T12:03:56;101746.88;;;-0.93;100.00
77583;BME280;66726;52.388;9.986;2024-01-07T12:06:24;101746.75;;;-0.90;100.00
77583;BME280;66726;52.388;9.986;2024-01-07T12:08:53;101745.94;;;-0.92;100.00
77583;BME280;66726;52.388;9.986;2024-01-07T12:11:21;101747.50;;;-0.86;100.00
77583;BME280;66726;52.388;9.986;2024-01-07T12:13:52;101744.00;;;-0.87;100.00
77583;BME280;66726;52.388;9.986;2024-01-07T12:16:21;101752.78;;;-0.88;100.00
77583;BME280;66726;52.388;9.986;2024-01-07T12:18:50;101748.56;;;-0.92;100.00
77583;BME280;66726;52.388;9.986;2024-01-07T12:21:21;101750.41;;;-0.94;100.00
77583;BME280;66726;52.388;9.986;2024-01-07T12:23:50;101739.97;;;-0.95;100.00
77583;BME280;66726;52.388;9.986;2024-01-07T12:26:19;101753.09;;;-0.95;100.00
77583;BME280;66726;52.388;9.986;2024-01-07T12:28:54;101749.50;;;-0.93;100.00
77583;BME280;66726;52.388;9.986;2024-01-07T12:31:24;101754.69;;;-0.91;100.00
77583;BME280;66726;52.388;9.986;2024-01-07T12:33:53;101753.81;;;-0.92;100.00
77583;BME280;66726;52.388;9.986;2024-01-07T12:36:22;101756.22;;;-0.86;100.00
77583;BME280;66726;52.388;9.986;2024-01-07T12:38:51;101754.44;;;-0.85;100.00
77583;BME280;66726;52.388;9.986;2024-01-07T12:41:21;101752.16;;;-0.93;100.00
77583;BME280;66726;52.388;9.986;2024-01-07T12:43:50;101748.41;;;-0.87;100.00
77583;BME280;66726;52.388;9.986;2024-01-07T12:46:21;101750.97;;;-0.86;100.00
77583;BME280;66726;52.388;9.986;2024-01-07T12:48:49;101752.63;;;-0.83;100.00
77583;BME280;66726;52.388;9.986;2024-01-07T12:51:17;101757.88;;;-0.83;100.00